Time;durP1;ratioP1;P1;durP2;ratioP2;P2;SDS_P1;SDS_P2;PMS_P1;PMS_P2;Temp;Humidity;BMP_temperature;BMP_pressure;BME280_temperature;BME280_humidity;BME280_pressure;Samples;Min_cycle;Max_cycle;Signal;HPM_P1;HPM_P2
2021/10/10 00:00:37;;;;;;;4.47;3.67;;;11.80;99.90;;;;;;5015958;28;20227;-71
2021/10/10 00:03:04;;;;;;;4.05;3.70;;;11.70;99.90;;;;;;5020583;28;20234;-70
2021/10/10 00:05:31;;;;;;;3.88;3.53;;;11.70;99.90;;;;;;5022457;28;20328;-71
2021/10/10 00:07:58;;;;;;;4.18;3.78;;;11.60;99.90;;;;;;5018109;28;20905;-71
2021/10/10 00:10:25;;;;;;;4.20;3.83;;;11.60;99.90;;;;;;5023136;28;20223;-71
2021/10/10 00:12:52;;;;;;;3.08;2.88;;;11.60;99.90;;;;;;5021756;28;20227;-72
2021/10/10 00:15:19;;;;;;;3.28;2.97;;;11.60;99.90;;;;;;5017105;28;20660;-70
2021/10/10 00:17:48;;;;;;;3.50;3.20;;;11.60;99.90;;;;;;5023036;28;20227;-71
2021/10/10 00:20:15;;;;;;;3.55;3.25;;;11.60;99.90;;;;;;5022428;28;20246;-74
2021/10/10 00:22:43;;;;;;;3.85;3.42;;;11.60;99.90;;;;;;5020486;28;20289;-70
2021/10/10 00:25:11;;;;;;;4.00;3.60;;;11.60;99.90;;;;;;5020991;28;20269;-71
2021/10/10 00:27:38;;;;;;;3.90;3.60;;;11.60;99.90;;;;;;5020108;28;20693;-70
2021/10/10 00:30:07;;;;;;;3.83;3.50;;;11.60;99.90;;;;;;5004460;28;20224;-71
2021/10/10 00:32:34;;;;;;;4.55;3.72;;;11.50;99.90;;;;;;5022138;28;20269;-73
2021/10/10 00:35:03;;;;;;;4.63;3.42;;;11.50;99.90;;;;;;5024072;28;20280;-70
2021/10/10 00:37:30;;;;;;;3.70;3.30;;;11.50;99.90;;;;;;5021459;28;20270;-72
2021/10/10 00:39:57;;;;;;;3.90;3.50;;;11.50;99.90;;;;;;5016040;28;20334;-71
2021/10/10 00:42:24;;;;;;;4.47;3.25;;;11.50;99.90;;;;;;5021355;28;20215;-72
2021/10/10 00:44:51;;;;;;;4.38;3.63;;;11.60;99.90;;;;;;5021826;28;20230;-70
2021/10/10 00:47:18;;;;;;;3.75;3.45;;;11.50;99.90;;;;;;5023389;28;20220;-74
2021/10/10 00:49:45;;;;;;;3.80;3.47;;;11.50;99.90;;;;;;5021191;28;20239;-72
2021/10/10 00:52:16;;;;;;;3.78;3.38;;;11.50;99.90;;;;;;5020724;28;20226;-71
2021/10/10 00:54:46;;;;;;;3.50;3.20;;;11.40;99.90;;;;;;5008653;28;20235;-72
2021/10/10 00:57:15;;;;;;;5.90;4.00;;;11.40;99.90;;;;;;5001932;28;20311;-71
2021/10/10 00:59:45;;;;;;;3.50;3.20;;;11.40;99.90;;;;;;5012500;28;20244;-70
2021/10/10 01:02:12;;;;;;;3.88;3.58;;;11.40;99.90;;;;;;5021527;28;20237;-74
2021/10/10 01:04:39;;;;;;;3.92;3.55;;;11.30;99.90;;;;;;5022160;28;20227;-72
2021/10/10 01:07:07;;;;;;;3.78;3.47;;;11.30;99.90;;;;;;5022217;28;20236;-70
2021/10/10 01:09:36;;;;;;;4.00;3.70;;;11.30;99.90;;;;;;5021615;28;20234;-73
2021/10/10 01:12:04;;;;;;;3.78;3.47;;;11.30;99.90;;;;;;5019346;28;20227;-72
2021/10/10 01:14:33;;;;;;;5.35;3.60;;;11.30;99.90;;;;;;5022064;28;20297;-74
2021/10/10 01:17:00;;;;;;;4.10;3.80;;;11.30;99.90;;;;;;5015598;28;20220;-73
2021/10/10 01:19:29;;;;;;;3.50;3.30;;;11.20;99.90;;;;;;5011789;28;20737;-71
2021/10/10 01:21:58;;;;;;;4.00;3.60;;;11.20;99.90;;;;;;5012233;28;20781;-71
2021/10/10 01:24:26;;;;;;;3.30;3.10;;;11.10;99.90;;;;;;5018731;28;20219;-73
2021/10/10 01:26:53;;;;;;;3.88;3.20;;;11.10;99.90;;;;;;5007096;28;20843;-73
2021/10/10 01:29:20;;;;;;;4.07;3.75;;;11.10;99.90;;;;;;5010726;28;20231;-73
2021/10/10 01:31:48;;;;;;;3.75;3.45;;;11.00;99.90;;;;;;5010629;28;20270;-72
2021/10/10 01:34:15;;;;;;;4.13;3.83;;;11.00;99.90;;;;;;5020577;28;20632;-74
2021/10/10 01:36:42;;;;;;;4.18;3.88;;;11.00;99.90;;;;;;5020039;28;20685;-78
2021/10/10 01:39:11;;;;;;;4.40;4.00;;;10.90;99.90;;;;;;5020547;28;20318;-71
2021/10/10 01:41:38;;;;;;;3.90;3.50;;;10.90;99.90;;;;;;5014879;28;20227;-73
2021/10/10 01:44:05;;;;;;;3.80;3.50;;;10.80;99.90;;;;;;5004986;28;20290;-76
2021/10/10 01:46:32;;;;;;;4.13;3.75;;;10.70;99.90;;;;;;5007337;28;20250;-73
2021/10/10 01:48:59;;;;;;;3.85;3.55;;;10.70;99.90;;;;;;5010903;28;20710;-74
2021/10/10 01:51:26;;;;;;;3.60;3.30;;;10.60;99.90;;;;;;5010029;28;20228;-74
2021/10/10 01:53:53;;;;;;;3.83;3.53;;;10.60;99.90;;;;;;5006062;28;20229;-71
2021/10/10 01:56:22;;;;;;;4.30;3.95;;;10.50;99.90;;;;;;5007699;28;20224;-71
2021/10/10 01:58:49;;;;;;;5.72;4.50;;;10.50;99.90;;;;;;5003791;28;20223;-73
2021/10/10 02:01:16;;;;;;;4.95;3.78;;;10.50;99.90;;;;;;5019306;28;20223;-77
2021/10/10 02:03:43;;;;;;;4.30;3.90;;;10.40;99.90;;;;;;5026419;28;20222;-71
2021/10/10 02:06:10;;;;;;;4.57;4.15;;;10.40;99.90;;;;;;5025113;28;20737;-70
2021/10/10 02:08:37;;;;;;;4.05;3.75;;;10.40;99.90;;;;;;5020807;28;20228;-72
2021/10/10 02:11:04;;;;;;;4.35;3.95;;;10.40;99.90;;;;;;5020172;28;20220;-74
2021/10/10 02:13:32;;;;;;;4.38;4.07;;;10.30;99.90;;;;;;5007790;28;20223;-73
2021/10/10 02:15:59;;;;;;;5.20;4.00;;;10.30;99.90;;;;;;5008327;28;20277;-75
2021/10/10 02:18:26;;;;;;;4.60;4.20;;;10.20;99.90;;;;;;5022336;28;20609;-77
2021/10/10 02:20:53;;;;;;;4.82;4.38;;;10.10;99.90;;;;;;5018099;28;20278;-73
2021/10/10 02:23:20;;;;;;;4.70;4.30;;;10.10;99.90;;;;;;5019821;28;20289;-74
2021/10/10 02:25:47;;;;;;;4.43;4.03;;;10.00;99.90;;;;;;5014767;28;20228;-74
2021/10/10 02:28:14;;;;;;;4.13;3.83;;;10.10;99.90;;;;;;5024939;28;20235;-71
2021/10/10 02:30:43;;;;;;;4.00;3.70;;;10.10;99.90;;;;;;5019137;28;20328;-74
2021/10/10 02:33:10;;;;;;;3.63;3.33;;;10.10;99.90;;;;;;5022477;28;20230;-73
2021/10/10 02:35:37;;;;;;;4.28;3.95;;;10.10;99.90;;;;;;5016868;28;20240;-72
2021/10/10 02:38:04;;;;;;;4.13;3.72;;;10.10;99.90;;;;;;5026324;28;20377;-73
2021/10/10 02:40:31;;;;;;;4.20;3.80;;;10.10;99.90;;;;;;5019539;28;20297;-71
2021/10/10 02:42:59;;;;;;;4.85;4.18;;;10.10;99.90;;;;;;5023363;28;20227;-70
2021/10/10 02:45:26;;;;;;;4.40;4.00;;;10.10;99.90;;;;;;5019284;28;20228;-71
2021/10/10 02:47:54;;;;;;;4.00;3.70;;;10.00;99.90;;;;;;5013315;28;20228;-73
2021/10/10 02:50:22;;;;;;;3.97;3.67;;;10.00;99.90;;;;;;5010922;28;20273;-70
2021/10/10 02:52:49;;;;;;;4.20;3.90;;;10.00;99.90;;;;;;5026196;28;20235;-71
2021/10/10 02:55:15;;;;;;;3.95;3.65;;;10.10;99.90;;;;;;5022382;28;20273;-71
2021/10/10 02:57:43;;;;;;;4.28;3.97;;;10.00;99.90;;;;;;5008376;28;20278;-72
2021/10/10 03:00:11;;;;;;;4.15;3.80;;;10.10;99.90;;;;;;5002962;28;20313;-73
2021/10/10 03:02:38;;;;;;;4.35;4.05;;;10.10;99.90;;;;;;5003153;28;20301;-75
2021/10/10 03:05:07;;;;;;;3.80;3.50;;;10.00;99.90;;;;;;5001207;28;20277;-72
2021/10/10 03:07:34;;;;;;;4.50;4.10;;;10.00;99.90;;;;;;5003805;28;20802;-74
2021/10/10 03:10:01;;;;;;;3.67;3.40;;;9.90;99.90;;;;;;5005145;28;20223;-73
2021/10/10 03:12:28;;;;;;;4.30;3.95;;;9.90;99.90;;;;;;5009312;28;20227;-76
2021/10/10 03:14:55;;;;;;;3.97;3.60;;;9.90;99.90;;;;;;5026343;28;20223;-74
2021/10/10 03:17:22;;;;;;;4.43;4.05;;;9.80;99.90;;;;;;5012309;28;20248;-72
2021/10/10 03:19:49;;;;;;;4.40;4.00;;;9.80;99.90;;;;;;5013604;28;20646;-72
2021/10/10 03:22:18;;;;;;;4.30;4.00;;;9.70;99.90;;;;;;5024557;28;20238;-71
2021/10/10 03:24:45;;;;;;;4.15;3.75;;;9.70;99.90;;;;;;5021995;28;20230;-75
2021/10/10 03:27:12;;;;;;;4.82;3.90;;;9.70;99.90;;;;;;5021941;28;23004;-72
2021/10/10 03:29:39;;;;;;;4.30;3.88;;;9.70;99.90;;;;;;5021786;28;20223;-76
2021/10/10 03:32:06;;;;;;;4.25;3.90;;;9.60;99.90;;;;;;5023844;28;20784;-71
2021/10/10 03:34:33;;;;;;;3.90;3.60;;;9.60;99.90;;;;;;5026036;28;20782;-72
2021/10/10 03:37:00;;;;;;;4.80;4.32;;;9.60;99.90;;;;;;5003251;28;20215;-75
2021/10/10 03:39:29;;;;;;;4.13;3.80;;;9.60;99.90;;;;;;5024637;28;20284;-73
2021/10/10 03:41:56;;;;;;;4.90;3.80;;;9.50;99.90;;;;;;5021687;28;20215;-73
2021/10/10 03:44:23;;;;;;;3.90;3.60;;;9.50;99.90;;;;;;5025902;28;20301;-71
2021/10/10 03:46:50;;;;;;;3.28;3.08;;;9.50;99.90;;;;;;5011472;28;20227;-72
2021/10/10 03:49:17;;;;;;;5.45;4.15;;;9.40;99.90;;;;;;5001644;28;21062;-71
2021/10/10 03:51:44;;;;;;;4.53;4.13;;;9.50;99.90;;;;;;5013211;28;20294;-70
2021/10/10 03:56:54;;;;;;;4.82;4.43;;;9.40;99.90;;;;;;5013457;28;20216;-70
2021/10/10 03:59:22;;;;;;;4.20;3.90;;;9.40;99.90;;;;;;5016432;28;20698;-72
2021/10/10 04:01:49;;;;;;;6.53;4.60;;;9.30;99.90;;;;;;5000397;28;20306;-70
2021/10/10 04:04:17;;;;;;;4.18;3.88;;;9.20;99.90;;;;;;4996223;28;20228;-71
2021/10/10 04:06:44;;;;;;;3.88;3.58;;;9.10;99.90;;;;;;5015820;28;20228;-71
2021/10/10 04:09:11;;;;;;;5.18;4.78;;;9.10;99.90;;;;;;5020949;28;20231;-73
2021/10/10 04:11:38;;;;;;;4.47;4.03;;;9.00;99.90;;;;;;5043149;22;20273;-76
2021/10/10 04:14:07;;;;;;;4.65;4.10;;;9.00;99.90;;;;;;5036703;28;20222;-75
2021/10/10 04:16:34;;;;;;;4.95;4.53;;;9.00;99.90;;;;;;5035026;28;20579;-77
2021/10/10 04:19:01;;;;;;;4.00;3.70;;;9.00;99.90;;;;;;5031966;28;20226;-77
2021/10/10 04:21:28;;;;;;;4.07;3.75;;;9.00;99.90;;;;;;5034322;28;20265;-76
2021/10/10 04:23:55;;;;;;;3.70;3.40;;;9.00;99.90;;;;;;5018509;28;20288;-75
2021/10/10 04:26:22;;;;;;;3.65;3.35;;;9.10;99.90;;;;;;5018544;28;20223;-75
2021/10/10 04:28:49;;;;;;;4.00;3.58;;;9.10;99.90;;;;;;5017299;28;20625;-75
2021/10/10 04:31:17;;;;;;;3.63;3.33;;;9.10;99.90;;;;;;5018203;28;20281;-76
2021/10/10 04:33:44;;;;;;;4.55;3.90;;;9.10;99.90;;;;;;5016025;28;20312;-75
2021/10/10 04:36:12;;;;;;;4.30;3.83;;;9.10;99.90;;;;;;5017254;28;20230;-76
2021/10/10 04:38:39;;;;;;;4.20;3.90;;;9.10;99.90;;;;;;5023221;28;20223;-76
2021/10/10 04:41:06;;;;;;;4.35;3.95;;;9.00;99.90;;;;;;5020227;28;20273;-75
2021/10/10 04:43:33;;;;;;;4.20;3.90;;;9.00;99.90;;;;;;5021880;28;20269;-75
2021/10/10 04:46:00;;;;;;;4.30;3.90;;;9.00;99.90;;;;;;5018568;28;20702;-76
2021/10/10 04:48:28;;;;;;;3.97;3.55;;;9.00;99.90;;;;;;5015953;28;20223;-76
2021/10/10 04:50:55;;;;;;;4.45;4.07;;;9.00;99.90;;;;;;5017321;28;20281;-76
2021/10/10 04:53:22;;;;;;;4.32;4.03;;;8.90;99.90;;;;;;5019306;28;20625;-75
2021/10/10 04:55:49;;;;;;;6.80;4.22;;;8.80;99.90;;;;;;5016577;28;20227;-76
2021/10/10 04:58:16;;;;;;;3.83;3.53;;;8.80;99.90;;;;;;5019618;28;20401;-75
2021/10/10 05:00:43;;;;;;;4.63;4.28;;;8.70;99.90;;;;;;5016449;28;20224;-76
2021/10/10 05:03:10;;;;;;;3.65;3.35;;;8.70;99.90;;;;;;5017530;28;20273;-75
2021/10/10 05:05:41;;;;;;;4.05;3.75;;;8.70;99.90;;;;;;5015043;28;20629;-77
2021/10/10 05:08:09;;;;;;;4.05;3.67;;;8.60;99.90;;;;;;5015670;28;20224;-76
2021/10/10 05:10:36;;;;;;;4.03;3.72;;;8.60;99.90;;;;;;5023314;28;20223;-75
2021/10/10 05:13:04;;;;;;;3.78;3.53;;;8.60;99.90;;;;;;5020390;28;20303;-76
2021/10/10 05:15:31;;;;;;;4.20;3.90;;;8.60;99.90;;;;;;5025947;28;20235;-76
2021/10/10 05:17:58;;;;;;;4.07;3.78;;;8.60;99.90;;;;;;5019507;28;20350;-76
2021/10/10 05:20:25;;;;;;;4.50;4.10;;;8.60;99.90;;;;;;5017454;28;20345;-77
2021/10/10 05:22:54;;;;;;;3.97;3.67;;;8.60;99.90;;;;;;5025674;28;20790;-77
2021/10/10 05:25:21;;;;;;;3.90;3.60;;;8.60;99.90;;;;;;5026254;28;20281;-78
2021/10/10 05:27:48;;;;;;;4.18;3.65;;;8.60;99.90;;;;;;5021136;28;20269;-79
2021/10/10 05:30:15;;;;;;;4.32;3.92;;;8.60;99.90;;;;;;5020417;28;20232;-78
2021/10/10 05:32:42;;;;;;;3.78;3.47;;;8.60;99.90;;;;;;5023189;28;20289;-79
2021/10/10 05:35:09;;;;;;;4.65;4.25;;;8.60;99.90;;;;;;5024037;28;20219;-79
2021/10/10 05:37:36;;;;;;;3.95;3.65;;;8.60;99.90;;;;;;5021133;28;20231;-78
2021/10/10 05:40:06;;;;;;;4.15;3.50;;;8.70;99.90;;;;;;5022380;28;20634;-79
2021/10/10 05:42:33;;;;;;;4.18;3.80;;;8.70;99.90;;;;;;5023376;28;21000;-78
2021/10/10 05:45:00;;;;;;;4.40;4.00;;;8.60;99.90;;;;;;5025892;28;20306;-79
2021/10/10 05:47:27;;;;;;;3.95;3.65;;;8.60;99.90;;;;;;5023624;28;20226;-79
2021/10/10 05:49:54;;;;;;;5.03;4.10;;;8.60;99.90;;;;;;5026497;28;20645;-79
2021/10/10 05:52:25;;;;;;;3.80;3.55;;;8.60;99.90;;;;;;5020514;28;20285;-79
2021/10/10 05:54:52;;;;;;;4.00;3.70;;;8.60;99.90;;;;;;5024569;28;20246;-79
2021/10/10 05:57:23;;;;;;;3.72;3.45;;;8.60;99.90;;;;;;5017478;28;20216;-77
2021/10/10 05:59:55;;;;;;;4.18;3.83;;;8.60;99.90;;;;;;5019084;28;20218;-78
2021/10/10 06:02:22;;;;;;;3.90;3.60;;;8.60;99.90;;;;;;5023467;28;20219;-79
2021/10/10 06:04:49;;;;;;;4.00;3.70;;;8.60;99.90;;;;;;5023349;28;20280;-79
2021/10/10 06:07:16;;;;;;;5.75;4.32;;;8.60;99.90;;;;;;5022812;28;20226;-79
2021/10/10 06:09:43;;;;;;;3.80;3.50;;;8.50;99.90;;;;;;5023134;28;20230;-79
2021/10/10 06:12:10;;;;;;;3.95;3.55;;;8.50;99.90;;;;;;5021966;28;20779;-78
2021/10/10 06:14:39;;;;;;;4.20;3.90;;;8.50;99.90;;;;;;5021009;28;20227;-78
2021/10/10 06:17:07;;;;;;;4.68;4.13;;;8.60;99.90;;;;;;5021320;28;20304;-79
2021/10/10 06:19:34;;;;;;;4.38;4.07;;;8.60;99.90;;;;;;5021307;28;20306;-78
2021/10/10 06:22:01;;;;;;;4.20;3.90;;;8.60;99.90;;;;;;5023431;28;20277;-79
2021/10/10 06:24:28;;;;;;;4.88;3.60;;;8.60;99.90;;;;;;5022329;28;20228;-79
2021/10/10 06:26:55;;;;;;;3.83;3.53;;;8.70;99.90;;;;;;5024097;28;20219;-78
2021/10/10 06:29:22;;;;;;;4.57;4.18;;;8.60;99.90;;;;;;5024536;28;20562;-79
2021/10/10 06:31:50;;;;;;;5.05;4.00;;;8.60;99.90;;;;;;5026530;28;20231;-79
2021/10/10 06:34:17;;;;;;;4.47;3.80;;;8.60;99.90;;;;;;4998017;28;20230;-80
2021/10/10 06:36:44;;;;;;;4.35;4.05;;;8.60;99.90;;;;;;5022782;28;20219;-80
2021/10/10 06:39:12;;;;;;;4.40;4.00;;;8.70;99.90;;;;;;5024426;28;20231;-79
2021/10/10 06:41:38;;;;;;;4.57;4.22;;;8.70;99.90;;;;;;5025944;28;20273;-79
2021/10/10 06:44:08;;;;;;;4.18;3.85;;;8.80;99.90;;;;;;5025246;28;20270;-80
2021/10/10 06:46:35;;;;;;;4.60;4.20;;;9.30;99.90;;;;;;5022841;28;20216;-80
2021/10/10 06:49:03;;;;;;;4.78;4.30;;;10.20;99.90;;;;;;5024609;28;20234;-79
2021/10/10 06:51:30;;;;;;;4.70;4.30;;;10.80;99.90;;;;;;5024830;28;20759;-80
2021/10/10 06:53:57;;;;;;;4.80;4.40;;;11.50;99.90;;;;;;5024740;28;20286;-80
2021/10/10 06:56:25;;;;;;;4.80;4.30;;;12.20;99.90;;;;;;5024623;28;20224;-79
2021/10/10 06:58:52;;;;;;;4.35;3.95;;;12.70;99.90;;;;;;5024381;28;20235;-78
2021/10/10 07:01:19;;;;;;;5.28;4.07;;;13.20;99.90;;;;;;5022636;28;20219;-79
2021/10/10 07:03:46;;;;;;;4.35;4.05;;;13.60;99.90;;;;;;5021867;28;20301;-79
2021/10/10 07:06:14;;;;;;;4.25;3.80;;;14.00;99.90;;;;;;5025428;28;20285;-79
2021/10/10 07:08:41;;;;;;;6.45;4.10;;;14.30;99.90;;;;;;5023873;28;20219;-79
2021/10/10 07:11:09;;;;;;;4.63;4.22;;;14.30;99.90;;;;;;5025215;28;20250;-79
2021/10/10 07:13:36;;;;;;;5.57;4.22;;;14.20;99.90;;;;;;5025048;28;20222;-80
2021/10/10 07:16:03;;;;;;;4.00;3.70;;;14.10;99.90;;;;;;5022575;28;20282;-80
2021/10/10 07:18:38;;;;;;;5.90;4.13;;;14.20;99.90;;;;;;5026072;28;20278;-79
2021/10/10 07:21:17;;;;;;;4.95;3.97;;;14.50;99.90;;;;;;5019841;28;20781;-79
2021/10/10 07:24:07;;;;;;;5.53;4.47;;;14.70;99.90;;;;;;5022800;28;20277;-79
2021/10/10 07:26:34;;;;;;;4.15;3.72;;;14.80;99.90;;;;;;5023441;28;20338;-79
2021/10/10 07:29:02;;;;;;;4.70;4.30;;;15.00;99.90;;;;;;5020218;28;20648;-79
2021/10/10 07:31:29;;;;;;;3.80;3.50;;;15.20;99.90;;;;;;5022199;28;20219;-80
2021/10/10 07:33:56;;;;;;;3.90;3.60;;;15.40;99.90;;;;;;5019200;28;20289;-79
2021/10/10 07:36:23;;;;;;;4.15;3.53;;;15.80;99.90;;;;;;5022395;28;20224;-80
2021/10/10 07:38:51;;;;;;;5.07;3.85;;;16.20;99.90;;;;;;5022936;28;20231;-80
2021/10/10 07:41:19;;;;;;;5.25;3.97;;;16.20;99.90;;;;;;5024957;28;20220;-80
2021/10/10 07:43:46;;;;;;;4.13;3.72;;;16.20;99.90;;;;;;5022998;28;20228;-77
2021/10/10 07:46:19;;;;;;;4.30;3.78;;;16.20;99.90;;;;;;5021766;28;20235;-80
2021/10/10 07:48:47;;;;;;;4.75;3.42;;;16.20;99.90;;;;;;5024918;28;20594;-80
2021/10/10 07:51:14;;;;;;;5.80;4.28;;;16.40;99.90;;;;;;5020962;28;20235;-78
2021/10/10 07:53:41;;;;;;;4.20;3.80;;;16.50;99.90;;;;;;5027193;28;20273;-80
2021/10/10 07:56:09;;;;;;;5.65;4.57;;;16.60;99.90;;;;;;5024275;28;20219;-80
2021/10/10 07:58:36;;;;;;;4.47;3.95;;;16.60;99.90;;;;;;5020706;28;20261;-80
2021/10/10 08:01:03;;;;;;;4.30;3.95;;;16.50;99.90;;;;;;5023704;28;20230;-79
2021/10/10 08:03:30;;;;;;;5.90;3.83;;;16.60;99.90;;;;;;5023176;28;20219;-79
2021/10/10 08:05:57;;;;;;;5.00;4.45;;;16.50;99.90;;;;;;5024297;28;20230;-78
2021/10/10 08:08:24;;;;;;;4.55;4.15;;;16.40;99.90;;;;;;5023101;28;20215;-80
2021/10/10 08:10:51;;;;;;;4.43;4.03;;;16.10;99.90;;;;;;5024351;28;20275;-79
2021/10/10 08:13:20;;;;;;;4.20;3.80;;;16.20;99.90;;;;;;5026499;28;20569;-79
2021/10/10 08:15:47;;;;;;;4.57;4.18;;;16.30;99.90;;;;;;5022997;28;20231;-79
2021/10/10 08:18:14;;;;;;;4.25;3.85;;;16.50;99.90;;;;;;5023612;28;20239;-79
2021/10/10 08:20:41;;;;;;;3.95;3.58;;;16.80;99.90;;;;;;5023172;28;20228;-80
2021/10/10 08:23:09;;;;;;;4.63;4.03;;;17.00;99.90;;;;;;5021313;28;20694;-78
2021/10/10 08:25:36;;;;;;;3.90;3.60;;;17.10;99.90;;;;;;5022420;28;20720;-79
2021/10/10 08:28:04;;;;;;;4.50;3.35;;;16.90;99.90;;;;;;5021904;28;20219;-79
2021/10/10 08:30:32;;;;;;;3.75;3.42;;;17.00;99.90;;;;;;5021452;28;20234;-79
2021/10/10 08:32:59;;;;;;;4.30;3.55;;;17.20;99.90;;;;;;5022065;28;20223;-79
2021/10/10 08:35:27;;;;;;;4.55;3.95;;;17.40;99.90;;;;;;5020991;28;20301;-79
2021/10/10 08:37:54;;;;;;;3.65;3.35;;;17.60;99.90;;;;;;5023813;28;20223;-78
2021/10/10 08:40:21;;;;;;;5.32;4.20;;;17.70;99.90;;;;;;5022297;28;20227;-79
2021/10/10 08:42:50;;;;;;;3.90;3.60;;;17.50;99.90;;;;;;5021827;28;20230;-80
2021/10/10 08:45:21;;;;;;;5.03;3.80;;;17.30;99.90;;;;;;5021289;28;20696;-79
2021/10/10 08:47:52;;;;;;;4.05;3.50;;;17.30;99.90;;;;;;5022369;28;20239;-79
2021/10/10 08:50:21;;;;;;;3.83;3.45;;;17.50;99.90;;;;;;5023154;28;20215;-79
2021/10/10 08:52:52;;;;;;;4.03;3.72;;;17.60;99.90;;;;;;4990505;28;20235;-79
2021/10/10 08:55:20;;;;;;;4.07;3.72;;;17.80;99.90;;;;;;5023580;28;20218;-77
2021/10/10 08:57:48;;;;;;;5.22;4.38;;;17.80;99.90;;;;;;5022520;28;20265;-79
2021/10/10 09:00:18;;;;;;;4.40;3.95;;;17.40;99.90;;;;;;5018922;28;20227;-78
2021/10/10 09:02:47;;;;;;;3.70;3.28;;;17.50;99.90;;;;;;5020437;28;20223;-78
2021/10/10 09:05:16;;;;;;;4.70;3.78;;;17.40;99.90;;;;;;5022492;28;20223;-77
2021/10/10 09:07:44;;;;;;;4.25;3.85;;;17.40;99.90;;;;;;5021357;28;20639;-78
2021/10/10 09:10:21;;;;;;;3.65;3.35;;;17.60;99.90;;;;;;5020321;28;20215;-77
2021/10/10 09:12:49;;;;;;;4.13;3.70;;;17.60;99.90;;;;;;5021178;28;20227;-77
2021/10/10 09:15:18;;;;;;;4.97;3.80;;;18.10;99.90;;;;;;5022178;28;20227;-77
2021/10/10 09:17:57;;;;;;;4.07;3.72;;;18.30;99.90;;;;;;5022471;28;20269;-77
2021/10/10 09:20:34;;;;;;;4.88;3.78;;;18.60;99.90;;;;;;5018671;28;20254;-77
2021/10/10 09:23:02;;;;;;;4.60;3.58;;;18.60;99.90;;;;;;5019348;28;20296;-76
2021/10/10 09:25:29;;;;;;;4.22;3.80;;;18.60;99.90;;;;;;5018472;28;20285;-77
2021/10/10 09:28:02;;;;;;;4.07;3.67;;;18.70;99.90;;;;;;5015712;28;20227;-76
2021/10/10 09:30:46;;;;;;;3.90;3.60;;;18.70;99.90;;;;;;5023281;28;20223;-76
2021/10/10 09:33:14;;;;;;;5.45;4.07;;;19.00;99.90;;;;;;5020408;28;20254;-77
2021/10/10 09:35:44;;;;;;;3.65;3.33;;;18.90;99.90;;;;;;5020342;28;20293;-77
2021/10/10 09:38:15;;;;;;;4.65;3.80;;;18.70;99.90;;;;;;5020603;28;20215;-77
2021/10/10 09:40:51;;;;;;;5.35;4.13;;;18.80;99.90;;;;;;5022295;28;20300;-76
2021/10/10 09:43:18;;;;;;;4.07;3.67;;;18.60;99.90;;;;;;5018747;28;20679;-77
2021/10/10 09:45:54;;;;;;;4.38;3.72;;;18.50;99.90;;;;;;5018616;28;20219;-76
2021/10/10 09:48:33;;;;;;;3.83;3.53;;;18.60;99.90;;;;;;5020693;28;20269;-76
2021/10/10 09:51:01;;;;;;;4.40;4.00;;;18.50;99.90;;;;;;5020329;28;20272;-76
2021/10/10 09:53:32;;;;;;;4.20;3.80;;;18.30;99.90;;;;;;5018881;28;20232;-77
2021/10/10 09:56:08;;;;;;;4.07;3.78;;;18.10;99.90;;;;;;5019114;28;20277;-77
2021/10/10 09:58:36;;;;;;;4.10;3.70;;;18.20;99.90;;;;;;5022394;28;20219;-77
2021/10/10 10:01:15;;;;;;;4.15;3.85;;;18.50;99.90;;;;;;5024673;28;20239;-77
2021/10/10 10:03:57;;;;;;;5.15;3.70;;;18.80;99.90;;;;;;5025499;28;20238;-77
2021/10/10 10:06:26;;;;;;;4.03;3.60;;;18.80;99.90;;;;;;5024046;28;20218;-77
2021/10/10 10:08:54;;;;;;;4.43;4.03;;;19.00;99.90;;;;;;5023229;28;20219;-76
2021/10/10 10:11:22;;;;;;;4.15;3.75;;;19.00;99.90;;;;;;5025222;28;20701;-77
2021/10/10 10:13:51;;;;;;;4.00;3.63;;;18.90;99.90;;;;;;5043857;22;20235;-74
2021/10/10 10:16:22;;;;;;;3.95;3.42;;;18.70;99.90;;;;;;5038631;28;20306;-74
2021/10/10 10:18:50;;;;;;;4.32;3.50;;;18.70;99.90;;;;;;5039583;28;20273;-73
2021/10/10 10:21:17;;;;;;;3.67;3.35;;;19.00;99.90;;;;;;5044983;28;20322;-74
2021/10/10 10:23:47;;;;;;;5.55;3.47;;;19.10;99.90;;;;;;5047821;28;20251;-73
2021/10/10 10:26:14;;;;;;;5.25;4.13;;;19.20;99.90;;;;;;5047944;28;20662;-74
2021/10/10 10:28:42;;;;;;;3.60;3.30;;;19.20;99.90;;;;;;5046021;28;20693;-73
2021/10/10 10:31:13;;;;;;;3.83;3.53;;;19.10;99.90;;;;;;5048948;28;20223;-73
2021/10/10 10:33:40;;;;;;;4.93;3.58;;;19.00;99.90;;;;;;5056142;28;20225;-73
2021/10/10 10:36:07;;;;;;;4.60;3.85;;;19.20;99.90;;;;;;5053536;28;20225;-77
2021/10/10 10:38:46;;;;;;;3.92;3.25;;;19.20;99.90;;;;;;5053023;28;20215;-73
2021/10/10 10:41:47;;;;;;;4.20;3.65;;;19.20;99.90;;;;;;5052906;28;20249;-73
2021/10/10 10:44:33;;;;;;;3.50;3.20;;;19.50;99.90;;;;;;5054674;28;20304;-73
2021/10/10 10:47:05;;;;;;;4.32;3.92;;;19.50;99.90;;;;;;5033515;28;20721;-73
2021/10/10 10:49:58;;;;;;;4.00;3.60;;;19.40;99.90;;;;;;5060934;28;20265;-74
2021/10/10 10:52:27;;;;;;;4.72;3.83;;;19.30;99.90;;;;;;5054523;28;20219;-74
2021/10/10 10:54:57;;;;;;;4.32;3.58;;;19.20;99.90;;;;;;5054370;28;20250;-73
2021/10/10 10:57:32;;;;;;;4.25;3.85;;;19.00;99.90;;;;;;5049521;28;20223;-73
2021/10/10 11:00:07;;;;;;;5.97;3.80;;;18.90;99.90;;;;;;5054202;28;20758;-73
2021/10/10 11:02:55;;;;;;;6.05;3.10;;;19.00;99.90;;;;;;5057236;28;20710;-75
2021/10/10 11:05:33;;;;;;;3.97;3.42;;;19.20;99.90;;;;;;5043466;28;20299;-76
2021/10/10 11:08:01;;;;;;;4.30;3.72;;;19.20;99.90;;;;;;5052290;28;20230;-73
2021/10/10 11:10:30;;;;;;;4.00;3.67;;;19.30;99.90;;;;;;5047555;28;20211;-73
2021/10/10 11:12:58;;;;;;;5.22;3.72;;;19.40;99.90;;;;;;5049173;28;20222;-74
2021/10/10 11:15:25;;;;;;;3.95;3.63;;;19.40;99.90;;;;;;5052583;28;20227;-73
2021/10/10 11:17:56;;;;;;;3.72;3.35;;;19.30;99.90;;;;;;5051566;28;20222;-75
2021/10/10 11:20:24;;;;;;;3.80;3.50;;;19.30;99.90;;;;;;5056403;28;20287;-73
2021/10/10 11:22:51;;;;;;;4.63;3.25;;;19.00;99.90;;;;;;5053390;28;20299;-73
2021/10/10 11:25:19;;;;;;;3.65;3.35;;;18.90;99.90;;;;;;5050089;28;20223;-73
2021/10/10 11:27:50;;;;;;;3.72;3.38;;;19.00;99.90;;;;;;5041532;28;20231;-73
2021/10/10 11:30:17;;;;;;;3.13;2.90;;;19.00;99.90;;;;;;5051472;28;20222;-73
2021/10/10 11:32:55;;;;;;;3.78;3.38;;;19.00;99.90;;;;;;5054762;28;20256;-73
2021/10/10 11:35:26;;;;;;;4.85;3.10;;;19.10;99.90;;;;;;5054669;28;20300;-75
2021/10/10 11:38:06;;;;;;;3.30;3.00;;;19.20;99.90;;;;;;5050722;28;20439;-73
2021/10/10 11:40:34;;;;;;;2.97;2.78;;;19.40;99.90;;;;;;5049049;28;20712;-74
2021/10/10 11:43:03;;;;;;;4.57;3.17;;;19.70;99.90;;;;;;5050245;28;20297;-74
2021/10/10 11:45:30;;;;;;;4.47;3.05;;;19.80;99.90;;;;;;5049005;28;20272;-73
2021/10/10 11:47:57;;;;;;;3.85;3.30;;;20.00;99.90;;;;;;5054763;28;20272;-73
2021/10/10 11:50:25;;;;;;;4.90;3.40;;;19.80;99.90;;;;;;5046313;28;20319;-73
2021/10/10 11:53:03;;;;;;;3.85;3.30;;;19.70;99.90;;;;;;5050346;28;20295;-75
2021/10/10 11:55:35;;;;;;;3.63;2.85;;;19.70;99.90;;;;;;5042194;28;20218;-73
2021/10/10 11:58:04;;;;;;;3.35;2.97;;;19.40;99.90;;;;;;5051992;28;20608;-74
2021/10/10 12:00:32;;;;;;;5.38;3.25;;;19.40;99.90;;;;;;5052316;28;20214;-73
2021/10/10 12:03:09;;;;;;;2.97;2.72;;;19.30;99.90;;;;;;5050024;28;20605;-74
2021/10/10 12:05:41;;;;;;;3.42;3.13;;;19.40;99.90;;;;;;5054802;28;20694;-73
2021/10/10 12:08:19;;;;;;;3.35;3.05;;;19.50;99.90;;;;;;5053826;28;20242;-73
2021/10/10 12:10:48;;;;;;;3.00;2.80;;;19.40;99.90;;;;;;5050240;28;20284;-73
2021/10/10 12:13:17;;;;;;;4.05;3.03;;;19.50;99.90;;;;;;5046288;28;20272;-74
2021/10/10 12:15:45;;;;;;;3.50;2.85;;;19.40;99.90;;;;;;5047359;28;20227;-73
2021/10/10 12:18:13;;;;;;;5.22;3.17;;;19.30;99.90;;;;;;5055697;28;20350;-74
2021/10/10 12:20:41;;;;;;;3.30;2.92;;;19.20;99.90;;;;;;5051169;28;20302;-73
2021/10/10 12:23:10;;;;;;;3.05;2.85;;;18.90;99.90;;;;;;5046638;28;20226;-74
2021/10/10 12:25:38;;;;;;;3.90;2.83;;;18.80;99.90;;;;;;5054844;28;20215;-74
2021/10/10 12:28:08;;;;;;;3.03;2.80;;;18.70;99.90;;;;;;5043953;28;20246;-73
2021/10/10 12:30:39;;;;;;;3.13;2.88;;;18.60;99.90;;;;;;5042496;28;20219;-74
2021/10/10 12:33:25;;;;;;;3.80;2.95;;;18.60;99.90;;;;;;5048063;28;20234;-73
2021/10/10 12:35:56;;;;;;;2.75;2.55;;;18.60;99.90;;;;;;5053239;28;20226;-74
2021/10/10 12:38:35;;;;;;;3.13;2.92;;;18.60;99.90;;;;;;5049769;28;20295;-73
2021/10/10 12:41:22;;;;;;;3.85;2.85;;;18.70;99.90;;;;;;5048129;28;20233;-75
2021/10/10 12:43:51;;;;;;;2.85;2.65;;;18.90;99.90;;;;;;5054460;28;20765;-73
2021/10/10 12:46:21;;;;;;;3.17;2.97;;;18.90;99.90;;;;;;5051987;28;20214;-74
2021/10/10 12:49:00;;;;;;;3.00;2.70;;;18.90;99.90;;;;;;5054138;28;20225;-74
2021/10/10 12:51:27;;;;;;;2.88;2.67;;;18.70;99.90;;;;;;5049910;28;20218;-74
2021/10/10 12:54:10;;;;;;;2.88;2.65;;;18.70;99.90;;;;;;5056951;28;20237;-74
2021/10/10 12:56:37;;;;;;;4.13;3.28;;;18.70;99.90;;;;;;5054001;28;20301;-73
2021/10/10 12:59:04;;;;;;;3.40;3.10;;;18.60;99.90;;;;;;5048414;28;20780;-73
2021/10/10 13:01:34;;;;;;;3.50;3.20;;;18.40;99.90;;;;;;5053035;28;20233;-73